createdAt,value
2018-11-21T00:00:04.364Z,22.25
2018-11-21T00:01:20.015Z,22.27
2018-11-21T00:02:35.772Z,34.40
2018-11-21T00:03:51.307Z,29.42
2018-11-21T00:05:06.939Z,14.18
2018-11-21T00:06:23.261Z,11.03
2018-11-21T00:07:38.977Z,14.70
2018-11-21T00:08:55.920Z,13.05
2018-11-21T00:10:12.708Z,20.40
2018-11-21T00:11:28.920Z,12.58
2018-11-21T00:24:54.329Z,13.95
2018-11-21T00:26:10.230Z,13.43
2018-11-21T00:27:25.991Z,11.35
2018-11-21T00:28:42.366Z,7.08
2018-11-21T00:29:58.692Z,18.07
2018-11-21T00:31:15.040Z,14.75
2018-11-21T00:33:32.688Z,5.85
2018-11-21T00:34:56.159Z,14.83
2018-11-21T00:36:19.201Z,17.62
2018-11-21T00:37:42.269Z,19.35
2018-11-21T00:39:07.148Z,16.42
2018-11-21T00:40:30.282Z,7.30
2018-11-21T00:41:46.245Z,9.13
2018-11-21T00:43:02.262Z,15.15
2018-11-21T00:44:18.639Z,11.30
2018-11-21T00:45:35.071Z,9.68
2018-11-21T00:46:51.415Z,6.87
2018-11-21T00:48:06.896Z,12.73
2018-11-21T00:49:23.297Z,9.03
2018-11-21T00:50:39.412Z,5.55
2018-11-21T00:51:55.310Z,7.72
2018-11-21T00:53:11.637Z,5.80
2018-11-21T00:54:28.416Z,7.87
2018-11-21T00:55:44.402Z,12.28
2018-11-21T00:57:00.993Z,17.05
2018-11-21T00:58:16.751Z,31.93
2018-11-21T00:59:20.605Z,24.02
2018-11-21T01:00:43.702Z,18.73
2018-11-21T01:01:59.355Z,28.85
2018-11-21T01:03:15.313Z,16.80
2018-11-21T01:04:31.375Z,22.90
2018-11-21T01:05:47.532Z,32.53
2018-11-21T01:07:03.825Z,38.23
2018-11-21T01:08:20.063Z,18.90
2018-11-21T01:09:36.284Z,18.17
2018-11-21T01:10:52.332Z,20.32
2018-11-21T01:12:08.535Z,11.50
2018-11-21T01:13:24.463Z,18.40
2018-11-21T01:14:40.752Z,10.98
2018-11-21T01:15:56.617Z,15.93
2018-11-21T01:17:12.284Z,19.02
2018-11-21T01:18:27.965Z,29.75
2018-11-21T01:19:44.070Z,40.00
2018-11-21T01:21:00.094Z,36.30
2018-11-21T01:22:16.382Z,40.08
2018-11-21T01:23:32.601Z,39.60
2018-11-21T01:24:48.611Z,36.50
2018-11-21T01:26:05.084Z,34.00
2018-11-21T01:27:08.870Z,39.88
2018-11-21T01:28:31.924Z,38.25
2018-11-21T01:29:47.747Z,27.73
2018-11-21T01:31:03.958Z,21.90
2018-11-21T01:32:20.111Z,20.65
2018-11-21T01:33:36.256Z,28.92
2018-11-21T01:34:52.508Z,32.23
2018-11-21T01:36:08.761Z,32.13
2018-11-21T01:37:24.876Z,30.23
2018-11-21T01:38:40.765Z,28.85
2018-11-21T01:39:55.442Z,31.10
2018-11-21T01:41:11.438Z,32.65
2018-11-21T01:42:27.568Z,20.00
2018-11-21T01:43:42.986Z,28.87
2018-11-21T01:44:59.231Z,41.35
2018-11-21T01:46:15.486Z,48.98
2018-11-21T01:47:31.824Z,44.45
2018-11-21T01:48:48.249Z,44.35
2018-11-21T01:50:04.503Z,18.27
2018-11-21T01:51:20.664Z,15.20
2018-11-21T01:52:36.140Z,10.13
2018-11-21T01:53:52.111Z,9.43
2018-11-21T01:55:08.498Z,10.93
2018-11-21T01:56:12.307Z,17.90
2018-11-21T01:57:35.431Z,16.95
2018-11-21T01:58:51.687Z,18.40
2018-11-21T02:00:07.226Z,28.62
2018-11-21T02:01:23.596Z,26.68
2018-11-21T02:02:39.896Z,34.80
2018-11-21T02:03:55.860Z,33.18
2018-11-21T02:05:11.464Z,36.73
2018-11-21T02:06:27.685Z,38.28
2018-11-21T02:07:44.082Z,44.63
2018-11-21T02:09:00.436Z,39.38
2018-11-21T02:10:17.083Z,33.55
2018-11-21T02:11:33.254Z,32.33
2018-11-21T02:12:49.424Z,23.80
2018-11-21T02:14:05.541Z,15.13
2018-11-21T02:15:21.415Z,14.80
2018-11-21T02:16:37.719Z,27.93
2018-11-21T02:17:53.951Z,30.17
2018-11-21T02:19:10.177Z,34.88
2018-11-21T02:20:25.686Z,38.70
2018-11-21T02:21:41.526Z,34.50
2018-11-21T02:22:58.111Z,37.53
2018-11-21T02:24:14.200Z,41.40
2018-11-21T02:25:30.408Z,28.35
2018-11-21T02:26:46.274Z,22.95
2018-11-21T02:28:02.503Z,28.62
2018-11-21T02:29:18.884Z,30.88
2018-11-21T02:30:35.052Z,26.17
2018-11-21T02:31:51.396Z,44.65
2018-11-21T02:33:07.708Z,56.18
2018-11-21T02:34:23.834Z,55.30
2018-11-21T02:35:39.287Z,51.05
2018-11-21T02:36:55.929Z,43.42
2018-11-21T02:38:12.042Z,44.38
2018-11-21T02:39:28.344Z,43.30
2018-11-21T02:40:44.453Z,46.08
2018-11-21T02:42:00.968Z,47.05
2018-11-21T02:43:17.233Z,57.17
2018-11-21T02:44:33.021Z,48.98
2018-11-21T02:45:49.121Z,36.48
2018-11-21T02:47:05.294Z,26.75
2018-11-21T02:48:21.712Z,24.35
2018-11-21T02:49:37.989Z,13.43
2018-11-21T02:50:54.068Z,14.20
2018-11-21T02:52:10.270Z,11.38
2018-11-21T02:53:26.339Z,31.12
2018-11-21T02:54:41.729Z,34.85
2018-11-21T02:55:57.790Z,34.10
2018-11-21T02:57:13.373Z,35.65
2018-11-21T02:58:29.660Z,40.55
2018-11-21T02:59:45.432Z,48.55
2018-11-21T03:01:01.609Z,38.42
2018-11-21T03:02:17.752Z,33.80
2018-11-21T03:03:34.109Z,42.27
2018-11-21T03:04:49.932Z,47.90
2018-11-21T03:06:05.356Z,48.15
2018-11-21T03:07:09.252Z,19.55
2018-11-21T03:08:32.359Z,18.73
2018-11-21T03:09:47.871Z,28.42
2018-11-21T03:11:04.122Z,30.65
2018-11-21T03:12:20.131Z,22.70
2018-11-21T03:13:36.444Z,20.45
2018-11-21T03:14:52.914Z,23.32
2018-11-21T03:16:08.933Z,18.02
2018-11-21T03:17:25.372Z,17.77
2018-11-21T03:18:41.394Z,16.87
2018-11-21T03:19:57.593Z,22.22
2018-11-21T03:21:13.592Z,21.33
2018-11-21T03:22:29.881Z,30.80
2018-11-21T03:23:46.175Z,33.95
2018-11-21T03:25:02.170Z,32.00
2018-11-21T03:26:18.363Z,30.65
2018-11-21T03:27:34.521Z,33.73
2018-11-21T03:28:50.573Z,24.87
2018-11-21T03:30:06.664Z,20.75
2018-11-21T03:31:22.583Z,25.97
2018-11-21T03:32:38.612Z,44.70
2018-11-21T03:33:42.424Z,33.80
2018-11-21T03:35:05.586Z,37.03
2018-11-21T03:36:28.655Z,37.93
2018-11-21T03:37:44.344Z,33.28
2018-11-21T03:39:00.725Z,31.37
2018-11-21T03:40:16.742Z,37.45
2018-11-21T03:41:33.087Z,36.17
2018-11-21T03:42:36.842Z,45.67
2018-11-21T03:44:00.082Z,38.80
2018-11-21T03:45:15.885Z,31.52
2018-11-21T03:46:32.011Z,34.25
2018-11-21T03:47:47.495Z,41.75
2018-11-21T03:49:03.411Z,36.70
2018-11-21T03:50:19.448Z,29.82
2018-11-21T03:51:35.353Z,21.40
2018-11-21T03:52:51.666Z,21.48
2018-11-21T03:54:07.751Z,19.52
2018-11-21T03:55:24.067Z,21.95
2018-11-21T03:56:40.594Z,20.17
2018-11-21T03:57:56.768Z,36.23
2018-11-21T03:59:12.994Z,15.68
2018-11-21T04:00:29.122Z,13.22
2018-11-21T04:01:45.466Z,23.60
2018-11-21T04:03:01.975Z,20.82
2018-11-21T04:04:17.683Z,25.25
2018-11-21T04:05:34.028Z,26.57
2018-11-21T04:06:49.593Z,19.82
2018-11-21T04:08:05.751Z,16.90
2018-11-21T04:09:21.333Z,24.27
2018-11-21T04:10:37.227Z,17.12
2018-11-21T04:11:52.857Z,28.52
2018-11-21T04:13:09.029Z,25.85
2018-11-21T04:14:25.371Z,14.33
2018-11-21T04:15:41.555Z,9.98
2018-11-21T04:16:57.157Z,8.13
2018-11-21T04:18:13.541Z,10.78
2018-11-21T04:19:29.072Z,11.45
2018-11-21T04:20:45.480Z,8.30
2018-11-21T04:22:01.786Z,7.12
2018-11-21T04:23:18.091Z,6.78
2018-11-21T04:24:34.316Z,6.37
2018-11-21T04:25:50.491Z,8.00
2018-11-21T04:27:06.327Z,5.95
2018-11-21T04:28:22.456Z,7.60
2018-11-21T04:29:38.726Z,5.67
2018-11-21T04:30:54.758Z,7.72
2018-11-21T04:32:11.039Z,7.97
2018-11-21T04:33:27.181Z,7.47
2018-11-21T04:34:43.389Z,6.55
2018-11-21T04:35:59.730Z,5.35
2018-11-21T04:37:15.730Z,5.50
2018-11-21T04:38:31.374Z,5.15
2018-11-21T04:39:47.730Z,5.67
2018-11-21T04:41:03.263Z,5.80
2018-11-21T04:42:19.279Z,5.90
2018-11-21T04:43:35.424Z,6.25
2018-11-21T04:44:51.330Z,9.08
2018-11-21T04:45:55.135Z,10.15
2018-11-21T04:47:18.208Z,6.55
2018-11-21T04:48:34.325Z,8.05
2018-11-21T04:49:50.464Z,6.12
2018-11-21T04:51:06.825Z,7.37
2018-11-21T04:52:23.014Z,7.08
2018-11-21T04:53:39.279Z,5.55
2018-11-21T04:54:55.359Z,5.78
2018-11-21T04:56:11.482Z,6.35
2018-11-21T04:57:27.404Z,5.92
2018-11-21T04:58:43.863Z,5.53
2018-11-21T05:00:00.613Z,7.50
2018-11-21T05:01:16.888Z,6.92
2018-11-21T05:02:33.047Z,6.40
2018-11-21T05:03:48.907Z,6.47
2018-11-21T05:05:05.624Z,6.10
2018-11-21T05:06:21.596Z,5.50
2018-11-21T05:07:38.266Z,6.05
2018-11-21T05:08:42.107Z,6.55
2018-11-21T05:10:05.524Z,5.97
2018-11-21T05:11:28.624Z,7.67
2018-11-21T05:12:44.231Z,8.85
2018-11-21T05:14:00.022Z,7.50
2018-11-21T05:15:03.874Z,5.80
2018-11-21T05:16:26.995Z,5.90
2018-11-21T05:17:43.200Z,7.17
2018-11-21T05:18:59.049Z,6.45
2018-11-21T05:20:02.873Z,6.53
2018-11-21T05:21:25.957Z,5.92
2018-11-21T05:22:41.936Z,7.35
2018-11-21T05:23:58.226Z,6.70
2018-11-21T05:25:14.854Z,5.85
2018-11-21T05:26:31.051Z,5.78
2018-11-21T05:27:46.624Z,10.70
2018-11-21T05:29:02.877Z,7.17
2018-11-21T05:30:19.025Z,7.45
2018-11-21T05:31:34.896Z,6.85
2018-11-21T05:32:38.796Z,6.60
2018-11-21T05:34:01.895Z,6.53
2018-11-21T05:35:18.242Z,6.03
2018-11-21T05:36:34.499Z,7.22
2018-11-21T05:37:51.083Z,6.22
2018-11-21T05:39:06.961Z,7.15
2018-11-21T05:40:11.372Z,6.85
2018-11-21T05:41:34.486Z,7.17
2018-11-21T05:42:50.291Z,6.87
2018-11-21T05:44:06.796Z,6.40
2018-11-21T05:45:23.076Z,9.20
2018-11-21T05:46:39.391Z,7.03
2018-11-21T05:47:56.489Z,7.17
2018-11-21T05:49:12.251Z,8.33
2018-11-21T05:50:28.140Z,6.00
2018-11-21T05:51:43.889Z,6.90
2018-11-21T05:53:00.166Z,7.50
2018-11-21T05:55:23.565Z,7.17
2018-11-21T05:56:47.611Z,6.00
2018-11-21T05:58:03.360Z,7.58
2018-11-21T05:59:19.645Z,9.58
2018-11-21T06:00:35.471Z,10.88
2018-11-21T06:01:51.784Z,8.98
2018-11-21T06:03:06.647Z,7.10
2018-11-21T06:04:22.836Z,8.03
2018-11-21T06:05:39.037Z,10.58
2018-11-21T06:06:55.123Z,10.00
2018-11-21T06:08:11.201Z,12.20
2018-11-21T06:09:27.637Z,11.73
2018-11-21T06:10:43.761Z,13.20
2018-11-21T06:12:04.261Z,8.60
2018-11-21T06:13:15.643Z,7.28
2018-11-21T06:14:19.507Z,7.28
2018-11-21T06:15:42.543Z,8.58
2018-11-21T06:16:58.608Z,7.42
2018-11-21T06:18:14.754Z,11.50
2018-11-21T06:19:31.080Z,10.40
2018-11-21T06:20:47.016Z,12.13
2018-11-21T06:22:01.672Z,8.93
2018-11-21T06:23:17.349Z,8.15
2018-11-21T06:24:33.767Z,9.43
2018-11-21T06:25:49.674Z,10.03
2018-11-21T06:27:05.209Z,9.03
2018-11-21T06:28:21.206Z,8.03
2018-11-21T06:29:37.669Z,8.45
2018-11-21T06:30:53.864Z,6.17
2018-11-21T06:32:09.949Z,9.30
2018-11-21T06:33:26.225Z,12.07
2018-11-21T06:34:45.344Z,12.30
2018-11-21T06:37:31.628Z,8.35
2018-11-21T06:38:49.565Z,6.80
2018-11-21T06:41:27.709Z,13.35
2018-11-21T06:43:08.669Z,9.18
2018-11-21T06:44:20.114Z,9.33
2018-11-21T06:46:58.133Z,9.03
2018-11-21T06:48:14.219Z,6.87
2018-11-21T06:49:29.907Z,9.35
2018-11-21T06:50:48.235Z,10.85
2018-11-21T06:52:06.875Z,7.35
2018-11-21T06:53:22.639Z,8.75
2018-11-21T06:54:38.806Z,10.20
2018-11-21T06:57:17.668Z,7.28
2018-11-21T06:58:33.862Z,11.08
2018-11-21T06:59:50.021Z,12.78
2018-11-21T07:01:06.393Z,7.17
2018-11-21T07:02:22.478Z,10.65
2018-11-21T07:03:41.907Z,17.00
2018-11-21T07:06:17.746Z,10.50
2018-11-21T07:07:35.753Z,9.15
2018-11-21T07:08:52.972Z,14.58
2018-11-21T07:10:08.105Z,13.90
2018-11-21T07:11:25.091Z,12.20
2018-11-21T07:12:42.073Z,10.55
2018-11-21T07:13:58.636Z,8.78
2018-11-21T07:15:14.204Z,10.98
2018-11-21T07:16:30.044Z,15.45
2018-11-21T07:17:46.325Z,10.48
2018-11-21T07:19:01.895Z,12.45
2018-11-21T07:20:18.020Z,12.90
2018-11-21T07:21:34.362Z,11.60
2018-11-21T07:22:52.857Z,8.18
2018-11-21T07:23:56.806Z,18.90
2018-11-21T07:25:21.009Z,7.60
2018-11-21T07:26:39.459Z,8.13
2018-11-21T07:27:55.291Z,11.20
2018-11-21T07:29:12.782Z,17.37
2018-11-21T07:30:28.793Z,16.73
2018-11-21T07:31:44.979Z,10.88
2018-11-21T07:32:48.883Z,18.02
2018-11-21T07:34:12.090Z,10.08
2018-11-21T07:35:35.299Z,12.63
2018-11-21T07:36:58.483Z,50.25
2018-11-21T07:38:22.305Z,50.10
2018-11-21T07:39:45.459Z,39.83
2018-11-21T07:41:01.641Z,21.62
2018-11-21T07:42:19.463Z,21.82
2018-11-21T07:43:33.694Z,22.98
2018-11-21T07:44:50.139Z,56.23
2018-11-21T07:46:06.376Z,17.65
2018-11-21T07:47:10.259Z,40.20
2018-11-21T07:48:33.363Z,17.23
2018-11-21T07:49:56.511Z,17.70
2018-11-21T07:51:12.627Z,16.80
2018-11-21T07:52:28.671Z,32.53
2018-11-21T07:53:45.006Z,19.00
2018-11-21T07:55:02.585Z,17.32
2018-11-21T07:56:21.047Z,17.07
2018-11-21T07:57:41.833Z,17.40
2018-11-21T07:58:57.739Z,38.17
2018-11-21T08:00:13.959Z,14.70
2018-11-21T08:02:52.696Z,18.25
2018-11-21T08:04:27.692Z,19.27
2018-11-21T08:05:52.417Z,17.67
2018-11-21T08:09:04.890Z,71.80
2018-11-21T08:10:23.835Z,15.90
2018-11-21T08:13:21.709Z,30.20
2018-11-21T08:16:47.863Z,35.20
2018-11-21T08:18:24.910Z,33.05
2018-11-21T08:20:03.548Z,61.05
2018-11-21T08:21:41.165Z,38.75
2018-11-21T08:24:17.922Z,25.88
2018-11-21T08:25:36.928Z,9.45
2018-11-21T08:26:55.752Z,17.77
2018-11-21T08:28:30.706Z,69.65
2018-11-21T08:29:46.565Z,47.10
2018-11-21T08:31:06.707Z,37.78
2018-11-21T08:32:26.400Z,27.05
2018-11-21T08:33:45.223Z,13.75
2018-11-21T08:35:02.291Z,20.72
2018-11-21T08:36:20.952Z,12.33
2018-11-21T08:37:36.730Z,16.30
2018-11-21T08:38:52.814Z,30.92
2018-11-21T08:40:09.113Z,31.02
2018-11-21T08:41:25.026Z,64.65
2018-11-21T08:42:41.261Z,30.17
2018-11-21T08:45:13.488Z,24.20
2018-11-21T08:47:50.716Z,11.75
2018-11-21T08:49:05.522Z,18.45
2018-11-21T08:50:21.656Z,32.65
2018-11-21T08:51:37.632Z,16.27
2018-11-21T08:52:58.047Z,24.67
2018-11-21T08:55:24.347Z,22.02
2018-11-21T08:56:47.487Z,23.18
2018-11-21T08:58:10.676Z,23.00
2018-11-21T08:59:28.778Z,32.48
2018-11-21T09:00:42.474Z,27.10
2018-11-21T09:01:58.992Z,12.95
2018-11-21T09:03:15.309Z,10.03
2018-11-21T09:04:33.721Z,17.35
2018-11-21T09:05:50.160Z,20.45
2018-11-21T09:07:05.776Z,23.95
2018-11-21T09:08:25.249Z,24.32
2018-11-21T09:09:45.132Z,31.07
2018-11-21T09:12:23.007Z,12.58
2018-11-21T09:13:41.614Z,32.70
2018-11-21T09:14:57.285Z,30.77
2018-11-21T09:17:35.160Z,27.95
2018-11-21T09:18:53.543Z,30.37
2018-11-21T09:20:10.894Z,13.03
2018-11-21T09:21:25.469Z,13.98
2018-11-21T09:22:45.466Z,11.50
2018-11-21T09:24:04.808Z,10.00
2018-11-21T09:25:25.071Z,22.85
2018-11-21T09:26:44.312Z,25.45
2018-11-21T09:29:21.778Z,19.30
2018-11-21T09:30:37.909Z,17.20
2018-11-21T09:31:57.207Z,24.00
2018-11-21T09:34:36.356Z,14.98
2018-11-21T09:37:14.287Z,14.47
2018-11-21T09:38:30.145Z,9.40
2018-11-21T09:39:46.119Z,8.53
2018-11-21T09:42:24.652Z,8.25
2018-11-21T09:43:42.645Z,10.98
2018-11-21T09:44:58.953Z,8.75
2018-11-21T09:46:17.286Z,11.93
2018-11-21T09:47:31.845Z,11.65
2018-11-21T09:48:44.047Z,17.42
2018-11-21T09:50:08.735Z,10.13
2018-11-21T09:51:24.854Z,25.80
2018-11-21T09:54:02.882Z,11.05
2018-11-21T09:55:21.732Z,12.75
2018-11-21T09:56:37.828Z,20.68
2018-11-21T10:00:36.407Z,9.43
2018-11-21T10:01:56.447Z,9.83
2018-11-21T10:04:33.558Z,13.00
2018-11-21T10:05:49.381Z,13.58
2018-11-21T10:07:05.330Z,14.83
2018-11-21T10:08:24.429Z,12.25
2018-11-21T10:10:59.913Z,12.73
2018-11-21T10:12:03.861Z,9.23
2018-11-21T10:13:26.966Z,7.45
2018-11-21T10:14:30.862Z,8.78
2018-11-21T10:15:54.066Z,5.85
2018-11-21T10:16:58.041Z,11.88
2018-11-21T10:18:21.201Z,19.25
2018-11-21T10:19:43.915Z,10.80
2018-11-21T10:21:00.681Z,11.08
2018-11-21T10:22:16.564Z,19.67
2018-11-21T10:23:32.467Z,19.35
2018-11-21T10:24:48.530Z,23.10
2018-11-21T10:26:04.830Z,17.92
2018-11-21T10:27:21.026Z,9.38
2018-11-21T10:28:37.362Z,9.13
2018-11-21T10:31:00.589Z,8.88
2018-11-21T10:32:23.667Z,7.62
2018-11-21T10:33:43.178Z,10.88
2018-11-21T10:35:02.257Z,8.55
2018-11-21T10:38:02.945Z,10.43
2018-11-21T10:39:19.340Z,13.70
2018-11-21T10:40:35.741Z,12.43
2018-11-21T10:41:54.534Z,10.53
2018-11-21T10:43:14.848Z,12.58
2018-11-21T10:45:53.194Z,11.78
2018-11-21T10:47:09.096Z,12.78
2018-11-21T10:48:24.976Z,14.03
2018-11-21T10:49:40.849Z,18.77
2018-11-21T10:50:56.781Z,9.70
2018-11-21T10:52:13.226Z,13.55
2018-11-21T10:53:29.620Z,12.75
2018-11-21T10:54:45.729Z,14.58
2018-11-21T10:56:01.728Z,11.80
2018-11-21T10:57:17.452Z,17.23
2018-11-21T10:58:33.296Z,13.60
2018-11-21T10:59:49.243Z,8.78
2018-11-21T11:03:05.049Z,15.03
2018-11-21T11:04:46.485Z,15.60
2018-11-21T11:06:21.530Z,26.35
2018-11-21T11:07:57.734Z,17.00
2018-11-21T11:09:34.869Z,6.37
2018-11-21T11:11:09.790Z,13.32
2018-11-21T11:14:23.870Z,21.48
2018-11-21T11:15:55.482Z,17.70
2018-11-21T11:17:30.975Z,19.92
2018-11-21T11:20:40.303Z,11.33
2018-11-21T11:22:15.088Z,10.85
2018-11-21T11:23:53.267Z,14.90
2018-11-21T11:25:29.640Z,17.48
2018-11-21T11:28:46.367Z,10.60
2018-11-21T11:32:02.879Z,21.55
2018-11-21T11:35:18.441Z,15.20
2018-11-21T11:38:35.133Z,11.55
2018-11-21T11:41:49.905Z,11.25
2018-11-21T11:43:16.197Z,10.63
2018-11-21T11:44:51.054Z,11.57
2018-11-21T11:46:27.242Z,16.42
2018-11-21T11:49:42.156Z,12.05
2018-11-21T11:51:22.619Z,8.90
2018-11-21T11:52:57.169Z,14.33
2018-11-21T11:54:19.983Z,12.68
2018-11-21T11:56:02.096Z,10.48
2018-11-21T11:59:16.015Z,16.00
2018-11-21T12:00:57.489Z,20.12
2018-11-21T12:02:33.321Z,15.20
2018-11-21T12:05:47.490Z,14.47
2018-11-21T12:07:23.781Z,11.18
2018-11-21T12:08:53.201Z,12.25
2018-11-21T12:10:28.699Z,11.55
2018-11-21T12:13:43.954Z,18.12
2018-11-21T12:15:19.355Z,15.20
2018-11-21T12:16:54.733Z,11.18
2018-11-21T12:19:52.092Z,12.93
2018-11-21T12:23:09.282Z,13.20
2018-11-21T12:24:47.817Z,10.20
2018-11-21T12:26:14.643Z,15.45
2018-11-21T12:29:28.098Z,9.33
2018-11-21T12:31:02.026Z,8.30
2018-11-21T12:34:21.115Z,13.48
2018-11-21T12:37:46.784Z,13.70
2018-11-21T12:41:01.681Z,15.10
2018-11-21T12:42:32.423Z,8.05
2018-11-21T12:44:01.170Z,10.63
2018-11-21T12:45:31.925Z,10.35
2018-11-21T12:47:10.130Z,12.68
2018-11-21T12:50:18.978Z,14.28
2018-11-21T12:51:54.143Z,9.88
2018-11-21T12:54:54.862Z,9.48
2018-11-21T12:56:32.704Z,10.75
2018-11-21T12:58:07.995Z,18.52
2018-11-21T13:01:16.826Z,10.93
2018-11-21T13:04:31.531Z,11.15
2018-11-21T13:06:06.447Z,8.45
2018-11-21T13:09:16.226Z,10.25
2018-11-21T13:12:13.847Z,10.32
2018-11-21T13:15:28.963Z,12.63
2018-11-21T13:16:59.638Z,11.90
2018-11-21T13:18:35.967Z,9.53
2018-11-21T13:21:50.015Z,9.55
2018-11-21T13:25:05.922Z,10.50
2018-11-21T13:28:25.954Z,13.30
2018-11-21T13:29:49.661Z,10.18
2018-11-21T13:31:24.270Z,11.40
2018-11-21T13:34:42.011Z,9.78
2018-11-21T13:36:20.048Z,15.03
2018-11-21T13:37:57.990Z,11.88
2018-11-21T13:39:34.123Z,14.07
2018-11-21T13:41:12.188Z,8.35
2018-11-21T13:42:48.592Z,12.55
2018-11-21T13:46:18.675Z,9.38
2018-11-21T13:47:56.556Z,9.28
2018-11-21T13:51:13.832Z,20.50
2018-11-21T13:54:35.191Z,15.03
2018-11-21T13:55:51.186Z,15.63
2018-11-21T13:57:06.662Z,14.83
2018-11-21T13:58:22.875Z,13.53
2018-11-21T13:59:39.161Z,15.23
2018-11-21T14:00:55.104Z,12.55
2018-11-21T14:02:11.221Z,13.83
2018-11-21T14:03:26.922Z,13.22
2018-11-21T14:04:43.224Z,9.65
2018-11-21T14:05:59.310Z,18.02
2018-11-21T14:07:15.228Z,14.73
2018-11-21T14:08:31.447Z,17.20
2018-11-21T14:09:47.616Z,14.75
2018-11-21T14:11:03.430Z,11.30
2018-11-21T14:12:19.581Z,23.80
2018-11-21T14:13:25.655Z,15.28
2018-11-21T14:14:29.416Z,12.58
2018-11-21T14:15:52.593Z,16.07
2018-11-21T14:17:08.800Z,12.10
2018-11-21T14:18:25.001Z,10.38
2018-11-21T14:19:40.894Z,10.65
2018-11-21T14:20:56.911Z,14.18
2018-11-21T14:22:13.114Z,12.45
2018-11-21T14:23:29.133Z,21.75
2018-11-21T14:24:45.479Z,16.55
2018-11-21T14:26:01.575Z,13.35
2018-11-21T14:27:17.749Z,14.05
2018-11-21T14:28:34.210Z,12.18
2018-11-21T14:29:50.577Z,10.23
2018-11-21T14:31:07.059Z,13.75
2018-11-21T14:32:23.399Z,11.38
2018-11-21T14:33:39.675Z,14.28
2018-11-21T14:34:55.910Z,15.18
2018-11-21T14:36:12.343Z,17.57
2018-11-21T14:37:28.613Z,17.95
2018-11-21T14:38:44.182Z,17.32
2018-11-21T14:40:00.549Z,13.93
2018-11-21T14:41:04.495Z,15.98
2018-11-21T14:42:27.550Z,13.00
2018-11-21T14:43:43.398Z,11.90
2018-11-21T14:44:59.703Z,11.88
2018-11-21T14:46:15.902Z,13.15
2018-11-21T14:47:32.342Z,20.90
2018-11-21T14:48:47.812Z,23.10
2018-11-21T14:50:04.074Z,30.70
2018-11-21T14:51:19.532Z,23.52
2018-11-21T14:52:35.318Z,27.55
2018-11-21T14:53:39.252Z,25.57
2018-11-21T14:54:43.105Z,17.57
2018-11-21T14:56:06.706Z,18.35
2018-11-21T14:57:22.443Z,15.20
2018-11-21T14:58:39.022Z,35.50
2018-11-21T14:59:55.203Z,32.03
2018-11-21T15:01:11.590Z,28.77
2018-11-21T15:02:27.955Z,41.60
2018-11-21T15:03:44.342Z,48.73
2018-11-21T15:05:00.120Z,37.67
2018-11-21T15:06:15.609Z,13.93
2018-11-21T15:07:31.781Z,17.87
2018-11-21T15:08:47.896Z,18.85
2018-11-21T15:10:04.299Z,25.77
2018-11-21T15:11:20.543Z,18.85
2018-11-21T15:12:37.209Z,13.98
2018-11-21T15:13:53.269Z,17.07
2018-11-21T15:15:08.812Z,38.98
2018-11-21T15:16:24.961Z,34.73
2018-11-21T15:17:41.456Z,39.10
2018-11-21T15:18:57.375Z,43.78
2018-11-21T15:20:21.091Z,64.03
2018-11-21T15:21:37.501Z,43.10
2018-11-21T15:22:53.914Z,32.20
2018-11-21T15:24:09.659Z,48.98
2018-11-21T15:25:25.984Z,61.35
2018-11-21T15:26:42.214Z,25.25
2018-11-21T15:27:46.199Z,21.23
2018-11-21T15:29:09.384Z,19.35
2018-11-21T15:30:32.900Z,13.20
2018-11-21T15:31:48.951Z,17.77
2018-11-21T15:33:04.421Z,15.30
2018-11-21T15:34:20.885Z,18.48
2018-11-21T15:35:24.972Z,27.25
2018-11-21T15:36:48.038Z,22.30
2018-11-21T15:38:03.884Z,19.82
2018-11-21T15:39:20.314Z,17.73
2018-11-21T15:40:36.783Z,13.43
2018-11-21T15:41:52.974Z,23.98
2018-11-21T15:43:09.025Z,31.17
2018-11-21T15:44:29.034Z,30.32
2018-11-21T15:45:45.159Z,18.92
2018-11-21T15:47:01.149Z,16.10
2018-11-21T15:48:18.207Z,43.58
2018-11-21T15:49:33.918Z,28.23
2018-11-21T15:50:49.534Z,64.35
2018-11-21T15:52:05.607Z,46.30
2018-11-21T15:53:22.013Z,28.57
2018-11-21T15:54:37.988Z,36.80
2018-11-21T15:55:53.978Z,28.45
2018-11-21T15:57:10.178Z,28.75
2018-11-21T15:58:25.684Z,39.85
2018-11-21T15:59:41.293Z,37.33
2018-11-21T16:00:57.550Z,24.18
2018-11-21T16:02:13.741Z,28.60
2018-11-21T16:03:30.337Z,26.65
2018-11-21T16:04:48.107Z,26.60
2018-11-21T16:06:02.618Z,24.65
2018-11-21T16:07:19.042Z,30.65
2018-11-21T16:08:35.578Z,50.25
2018-11-21T16:09:51.927Z,53.48
2018-11-21T16:11:08.175Z,59.53
2018-11-21T16:12:24.586Z,53.38
2018-11-21T16:13:40.818Z,74.67
2018-11-21T16:14:56.679Z,46.33
2018-11-21T16:16:12.615Z,41.95
2018-11-21T16:17:28.575Z,27.80
2018-11-21T16:18:45.067Z,49.45
2018-11-21T16:20:01.059Z,46.92
2018-11-21T16:21:17.259Z,30.12
2018-11-21T16:22:33.314Z,57.25
2018-11-21T16:23:49.657Z,51.42
2018-11-21T16:25:06.035Z,31.40
2018-11-21T16:26:22.292Z,43.38
2018-11-21T16:27:39.254Z,58.25
2018-11-21T16:28:55.340Z,62.70
2018-11-21T16:30:11.799Z,35.10
2018-11-21T16:31:28.125Z,39.38
2018-11-21T16:32:43.940Z,63.73
2018-11-21T16:34:00.097Z,28.25
2018-11-21T16:35:16.487Z,40.92
2018-11-21T16:36:32.759Z,39.98
2018-11-21T16:37:49.097Z,54.73
2018-11-21T16:39:05.497Z,34.60
2018-11-21T16:40:23.533Z,34.33
2018-11-21T16:41:39.666Z,22.10
2018-11-21T16:42:56.916Z,20.95
2018-11-21T16:44:13.209Z,20.12
2018-11-21T16:46:47.937Z,24.92
2018-11-21T16:48:03.474Z,28.05
2018-11-21T16:49:19.808Z,25.23
2018-11-21T16:50:36.141Z,47.33
2018-11-21T16:51:52.275Z,52.25
2018-11-21T16:53:07.872Z,110.05
2018-11-21T16:54:24.097Z,37.67
2018-11-21T16:55:40.284Z,58.10
2018-11-21T16:56:56.733Z,37.10
2018-11-21T16:58:12.572Z,92.55
2018-11-21T16:59:28.651Z,31.12
2018-11-21T17:00:45.004Z,39.00
2018-11-21T17:02:01.095Z,56.75
2018-11-21T17:03:05.119Z,74.55
2018-11-21T17:04:28.376Z,34.55
2018-11-21T17:05:44.788Z,43.38
2018-11-21T17:07:00.781Z,28.12
2018-11-21T17:08:17.314Z,23.38
2018-11-21T17:11:12.779Z,28.57
2018-11-21T17:12:29.003Z,45.15
2018-11-21T17:13:45.149Z,31.02
2018-11-21T17:15:01.267Z,35.75
2018-11-21T17:16:17.552Z,32.30
2018-11-21T17:17:33.910Z,21.05
2018-11-21T17:18:50.505Z,41.10
2018-11-21T17:20:06.417Z,30.92
2018-11-21T17:21:22.494Z,41.37
2018-11-21T17:22:38.823Z,40.45
2018-11-21T17:23:53.431Z,92.12
2018-11-21T17:24:57.359Z,67.62
2018-11-21T17:27:42.235Z,51.83
2018-11-21T17:28:58.218Z,47.67
2018-11-21T17:30:15.454Z,50.67
2018-11-21T17:31:31.259Z,55.20
2018-11-21T17:32:48.759Z,37.13
2018-11-21T17:34:04.697Z,74.90
2018-11-21T17:35:21.303Z,33.23
2018-11-21T17:36:37.085Z,33.05
2018-11-21T17:37:54.011Z,43.15
2018-11-21T17:39:09.888Z,40.48
2018-11-21T17:40:27.909Z,46.00
2018-11-21T17:41:44.224Z,29.90
2018-11-21T17:43:00.454Z,27.13
2018-11-21T17:44:16.698Z,80.53
2018-11-21T17:45:32.977Z,71.47
2018-11-21T17:46:49.299Z,83.05
2018-11-21T17:48:05.857Z,118.13
2018-11-21T17:49:21.850Z,66.65
2018-11-21T17:50:37.820Z,49.00
2018-11-21T17:51:54.107Z,49.42
2018-11-21T17:53:10.318Z,55.73
2018-11-21T17:54:25.896Z,41.83
2018-11-21T17:55:42.092Z,30.52
2018-11-21T17:56:58.070Z,23.52
2018-11-21T17:58:14.340Z,50.78
2018-11-21T17:59:30.456Z,39.05
2018-11-21T18:00:46.584Z,27.85
2018-11-21T18:02:02.576Z,53.13
2018-11-21T18:03:19.154Z,48.08
2018-11-21T18:04:35.357Z,83.12
2018-11-21T18:05:51.716Z,46.95
2018-11-21T18:07:07.782Z,67.15
2018-11-21T18:08:23.820Z,43.78
2018-11-21T18:09:40.130Z,39.78
2018-11-21T18:10:56.315Z,23.35
2018-11-21T18:12:12.332Z,30.80
2018-11-21T18:13:28.290Z,75.37
2018-11-21T18:14:44.330Z,27.82
2018-11-21T18:16:00.139Z,31.15
2018-11-21T18:17:16.418Z,18.50
2018-11-21T18:18:32.937Z,24.00
2018-11-21T18:19:49.198Z,24.63
2018-11-21T18:22:27.111Z,24.55
2018-11-21T18:23:42.779Z,39.88
2018-11-21T18:24:59.017Z,38.60
2018-11-21T18:26:15.313Z,27.70
2018-11-21T18:27:30.910Z,34.48
2018-11-21T18:28:47.223Z,24.60
2018-11-21T18:30:03.433Z,41.18
2018-11-21T18:31:19.828Z,26.37
2018-11-21T18:32:35.740Z,39.20
2018-11-21T18:33:52.295Z,29.45
2018-11-21T18:35:09.008Z,25.43
2018-11-21T18:36:24.632Z,22.32
2018-11-21T18:37:41.017Z,21.52
2018-11-21T18:39:00.384Z,24.43
